Time;durP1;ratioP1;P1;durP2;ratioP2;P2;SDS_P1;SDS_P2;PMS_P1;PMS_P2;Temp;Humidity;BMP_temperature;BMP_pressure;BME280_temperature;BME280_humidity;BME280_pressure;Samples;Min_cycle;Max_cycle;Signal;HPM_P1;HPM_P2
2022/08/14 00:03:36;;;;;;;10.48;6.60;;;;;;;20.97;68.29;101306.72;10339627;28;20038;-87
2022/08/14 00:08:38;;;;;;;12.25;6.70;;;;;;;20.91;68.92;101301.50;10334163;28;20117;-88
2022/08/14 00:13:47;;;;;;;12.38;7.38;;;;;;;20.82;69.00;101308.78;10306313;28;20038;-88
2022/08/14 00:18:53;;;;;;;14.85;6.88;;;;;;;20.79;69.14;101302.59;10327743;28;20827;-87
2022/08/14 00:24:15;;;;;;;13.95;6.40;;;;;;;20.75;69.43;101320.41;10319775;28;20535;-87
2022/08/14 00:29:30;;;;;;;10.25;6.47;;;;;;;20.72;69.79;101309.81;10310187;28;20054;-88
2022/08/14 00:34:41;;;;;;;10.63;6.63;;;;;;;20.69;70.15;101295.69;10324588;28;20077;-88
2022/08/14 00:39:47;;;;;;;15.93;6.53;;;;;;;20.68;70.35;101293.94;10322003;28;20038;-87
2022/08/14 00:44:50;;;;;;;16.15;7.20;;;;;;;20.64;70.87;101280.66;10334033;28;20327;-87
2022/08/14 00:49:56;;;;;;;10.95;6.95;;;;;;;20.61;70.96;101278.06;10346561;28;20049;-87
2022/08/14 00:54:58;;;;;;;10.90;6.82;;;;;;;20.54;71.32;101276.41;10339189;28;20536;-88
2022/08/14 01:00:07;;;;;;;13.82;7.22;;;;;;;20.48;71.88;101274.72;10347776;28;20074;-88
2022/08/14 01:05:33;;;;;;;13.07;7.00;;;;;;;20.46;71.80;101270.31;10302947;28;20049;-88
2022/08/14 01:10:54;;;;;;;11.80;6.38;;;;;;;20.44;72.28;101265.00;10338180;28;20042;-88
2022/08/14 01:15:57;;;;;;;11.45;7.15;;;;;;;20.46;72.35;101252.59;10360691;28;20042;-88
2022/08/14 01:21:10;;;;;;;11.68;7.50;;;;;;;20.49;72.28;101248.97;10325565;28;20749;-87
2022/08/14 01:26:19;;;;;;;16.42;6.93;;;;;;;20.51;72.01;101249.84;10331204;28;20051;-88
2022/08/14 01:31:51;;;;;;;11.85;7.10;;;;;;;20.51;71.76;101243.63;10338341;28;20043;-87
2022/08/14 01:36:55;;;;;;;13.20;6.70;;;;;;;20.51;71.65;101227.66;10342612;28;20050;-88
2022/08/14 01:41:59;;;;;;;15.43;7.22;;;;;;;20.49;71.63;101225.94;10332861;28;20046;-87
2022/08/14 01:47:12;;;;;;;11.93;6.90;;;;;;;20.52;72.02;101232.09;10328526;28;20047;-87
2022/08/14 01:52:24;;;;;;;19.98;7.30;;;;;;;20.49;71.44;101223.28;10330692;28;20713;-88
2022/08/14 01:57:46;;;;;;;11.65;6.95;;;;;;;20.46;71.92;101220.66;10323791;28;20053;-88
2022/08/14 02:03:07;;;;;;;11.23;7.05;;;;;;;20.41;72.30;101213.66;10324208;28;20541;-88
2022/08/14 02:08:09;;;;;;;14.10;6.95;;;;;;;20.39;72.37;101211.03;10328442;28;20099;-89
2022/08/14 02:13:14;;;;;;;12.05;7.20;;;;;;;20.35;72.52;101205.78;10343952;28;20053;-87
2022/08/14 02:18:29;;;;;;;11.27;7.18;;;;;;;20.30;72.50;101201.41;10337941;28;20046;-88
2022/08/14 02:23:34;;;;;;;12.75;7.10;;;;;;;20.25;72.46;101197.06;10338099;28;20050;-90
2022/08/14 02:28:40;;;;;;;12.00;6.68;;;;;;;20.20;72.55;101190.97;10328917;28;20050;-88
2022/08/14 02:33:59;;;;;;;13.50;7.40;;;;;;;20.10;73.20;101179.59;10339385;28;20129;-88
2022/08/14 02:39:01;;;;;;;11.68;6.53;;;;;;;20.02;73.18;101176.19;10328251;28;20042;-87
2022/08/14 02:44:05;;;;;;;13.07;7.65;;;;;;;19.93;73.32;101179.88;10331369;28;20137;-88
2022/08/14 02:49:11;;;;;;;16.98;7.40;;;;;;;19.89;73.41;101175.50;10345658;28;20116;-88
2022/08/14 02:54:16;;;;;;;11.35;6.55;;;;;;;19.84;73.66;101167.59;10315140;28;20051;-88
2022/08/14 02:59:30;;;;;;;10.55;7.13;;;;;;;19.81;74.00;101157.03;10333060;28;20459;-88
2022/08/14 03:04:37;;;;;;;14.90;7.00;;;;;;;19.67;74.31;101151.03;10328279;28;20049;-87
2022/08/14 03:09:40;;;;;;;12.10;6.80;;;;;;;19.57;74.66;101152.91;10326817;28;20038;-87
2022/08/14 03:15:13;;;;;;;12.20;6.82;;;;;;;19.52;75.14;101145.03;10322627;28;20042;-88
2022/08/14 03:20:20;;;;;;;10.40;6.53;;;;;;;19.47;75.10;101136.25;10320793;28;20408;-88
2022/08/14 03:25:23;;;;;;;11.70;7.13;;;;;;;19.45;75.21;101132.72;10321180;28;20138;-89
2022/08/14 03:30:26;;;;;;;13.00;6.82;;;;;;;19.38;75.57;101137.25;10314835;28;20049;-88
2022/08/14 03:35:42;;;;;;;12.60;6.85;;;;;;;19.33;75.82;101143.53;10320367;28;20034;-88
2022/08/14 03:41:06;;;;;;;14.90;7.32;;;;;;;19.31;76.13;101132.94;10321584;28;20157;-85
2022/08/14 03:46:10;;;;;;;10.68;6.65;;;;;;;19.31;76.02;101126.75;10324816;28;20133;-85
2022/08/14 03:51:33;;;;;;;13.90;7.20;;;;;;;19.25;76.23;101109.97;10306606;28;20077;-86
2022/08/14 03:56:39;;;;;;;15.77;6.88;;;;;;;19.21;76.74;101100.28;10319302;28;20058;-88
2022/08/14 04:01:41;;;;;;;11.40;6.97;;;;;;;19.23;76.64;101097.63;10319460;28;20046;-87
2022/08/14 04:06:47;;;;;;;11.15;7.18;;;;;;;19.19;76.67;101102.09;10303912;28;20042;-87
2022/08/14 04:11:50;;;;;;;10.50;6.57;;;;;;;19.17;77.00;101101.25;10321276;28;20054;-88
2022/08/14 04:16:51;;;;;;;12.70;7.20;;;;;;;19.13;77.09;101099.53;10322369;28;20052;-87
2022/08/14 04:21:53;;;;;;;14.32;6.88;;;;;;;19.09;77.40;101095.16;10320668;28;20046;-87
2022/08/14 04:27:08;;;;;;;12.95;7.38;;;;;;;19.10;77.25;101096.94;10301060;28;20054;-89
2022/08/14 04:32:11;;;;;;;17.45;8.65;;;;;;;19.10;77.32;101088.09;10319659;28;20473;-87
2022/08/14 04:48:19;;;;;;;13.15;7.57;;;;;;;19.12;77.95;101068.59;10330559;28;20078;-88
2022/08/14 04:53:46;;;;;;;15.63;6.97;;;;;;;19.14;77.75;101074.75;10324469;28;20046;-88
2022/08/14 04:58:56;;;;;;;16.60;7.10;;;;;;;19.19;77.75;101066.72;10328799;28;20068;-88
2022/08/14 05:03:57;;;;;;;;;;;;;;;19.27;77.86;101063.97;10325320;28;20058;-87
2022/08/14 05:09:03;;;;;;;13.95;6.70;;;;;;;19.30;77.96;101063.91;10330985;28;19964;-87
2022/08/14 05:14:12;;;;;;;12.68;6.85;;;;;;;19.33;77.80;101061.22;10356977;28;20038;-90
2022/08/14 05:19:35;;;;;;;12.77;7.30;;;;;;;19.37;77.74;101060.28;10351079;28;20046;-89
2022/08/14 05:25:07;;;;;;;13.10;7.25;;;;;;;19.37;77.36;101060.28;10345440;28;20057;-91
2022/08/14 05:30:14;;;;;;;12.50;7.18;;;;;;;19.38;77.44;101059.34;10366558;28;20073;-92
2022/08/14 05:35:19;;;;;;;13.05;6.97;;;;;;;19.36;77.92;101059.38;10366038;28;20077;-89
2022/08/14 05:40:26;;;;;;;15.87;7.20;;;;;;;19.37;77.56;101065.59;10351901;28;20066;-90
2022/08/14 05:45:28;;;;;;;12.50;7.35;;;;;;;19.38;77.80;101062.00;10367950;28;20049;-90
2022/08/14 05:50:33;;;;;;;12.55;7.05;;;;;;;19.37;78.15;101060.28;10361700;28;20053;-91
2022/08/14 05:55:48;;;;;;;10.68;7.03;;;;;;;19.39;77.96;101058.47;10356391;28;20045;-92
2022/08/14 06:00:54;;;;;;;23.60;8.63;;;;;;;19.47;77.98;101066.31;10370261;28;20050;-92
2022/08/14 06:05:57;;;;;;;12.57;7.47;;;;;;;19.50;78.30;101067.16;10367543;28;20046;-91
2022/08/14 06:11:07;;;;;;;14.65;7.22;;;;;;;19.58;77.91;101064.38;10342030;28;20046;-91
2022/08/14 06:16:24;;;;;;;13.65;8.10;;;;;;;19.75;77.58;101066.75;10314776;28;20681;-91
2022/08/14 06:21:25;;;;;;;15.32;7.75;;;;;;;19.95;77.30;101055.81;10328744;28;20053;-91
2022/08/14 06:26:27;;;;;;;12.02;7.28;;;;;;;20.18;77.09;101058.06;10325872;28;20074;-90
2022/08/14 06:31:31;;;;;;;10.38;7.38;;;;;;;20.55;76.61;101053.81;10324539;28;20076;-91
2022/08/14 06:36:35;;;;;;;11.63;7.18;;;;;;;21.04;75.58;101046.63;10324904;28;20089;-91
2022/08/14 06:41:39;;;;;;;10.52;6.88;;;;;;;21.52;74.48;101043.75;10325969;28;20046;-91
2022/08/14 06:47:01;;;;;;;12.13;7.00;;;;;;;22.04;73.00;101042.41;10325206;28;20053;-91
2022/08/14 06:52:03;;;;;;;11.52;6.60;;;;;;;22.71;71.64;101045.94;10324100;28;20046;-90
2022/08/14 06:57:06;;;;;;;13.52;7.10;;;;;;;23.55;69.54;101054.97;10324246;28;20574;-89
2022/08/14 07:07:40;;;;;;;10.73;6.60;;;;;;;24.39;65.10;101050.31;10323131;28;20050;-90
2022/08/14 07:12:44;;;;;;;9.13;6.32;;;;;;;24.50;64.66;101043.66;10316387;28;20467;-88
2022/08/14 07:18:06;;;;;;;11.50;5.75;;;;;;;25.02;63.18;101040.81;10328649;28;20049;-91
2022/08/14 07:23:10;;;;;;;10.40;5.93;;;;;;;25.69;62.21;101041.72;10327950;28;20638;-88
2022/08/14 07:28:44;;;;;;;11.85;5.50;;;;;;;26.37;60.49;101054.03;10306834;28;20054;-90
2022/08/14 07:33:50;;;;;;;9.50;5.88;;;;;;;26.77;59.13;101057.63;10322420;28;20521;-90
2022/08/14 07:38:52;;;;;;;10.68;5.72;;;;;;;26.90;57.35;101061.50;10321222;28;20631;-89
2022/08/14 07:43:53;;;;;;;8.80;5.90;;;;;;;26.84;56.56;101064.44;10322291;28;20042;-89
2022/08/14 07:48:58;;;;;;;9.85;5.97;;;;;;;26.77;56.13;101060.31;10322874;28;20070;-90
2022/08/14 07:53:59;;;;;;;9.27;5.55;;;;;;;27.15;56.04;101071.06;10321686;28;20047;-89
2022/08/14 07:59:01;;;;;;;9.90;5.50;;;;;;;27.44;55.15;101067.00;10320620;28;20069;-89
2022/08/14 08:04:03;;;;;;;12.30;5.57;;;;;;;27.76;54.95;101064.50;10320505;28;20050;-89
2022/08/14 08:09:17;;;;;;;11.20;5.88;;;;;;;28.12;53.52;101065.41;10319634;28;20522;-89
2022/08/14 08:14:19;;;;;;;7.60;5.20;;;;;;;28.29;53.06;101062.69;10319280;28;20064;-89
2022/08/14 08:19:21;;;;;;;10.70;5.43;;;;;;;28.86;52.89;101054.25;10302969;28;20158;-90
2022/08/14 08:24:23;;;;;;;8.82;5.10;;;;;;;29.14;51.71;101054.53;10314344;28;20058;-88
2022/08/14 08:29:24;;;;;;;10.48;4.97;;;;;;;29.07;50.46;101054.88;10318936;28;20038;-89
2022/08/14 08:34:30;;;;;;;6.95;4.68;;;;;;;29.30;51.08;101050.03;10319354;28;20034;-88
2022/08/14 08:39:41;;;;;;;9.65;4.68;;;;;;;29.36;49.66;101046.97;10329159;28;20049;-89
2022/08/14 08:45:03;;;;;;;11.02;4.85;;;;;;;29.16;49.77;101031.06;10305278;28;20069;-90
2022/08/14 08:50:29;;;;;;;8.43;4.97;;;;;;;29.07;49.90;101033.31;10320028;28;20062;-90
2022/08/14 08:55:33;;;;;;;8.88;5.18;;;;;;;29.24;49.09;101012.63;10302447;28;20065;-89
2022/08/14 09:00:38;;;;;;;9.00;5.40;;;;;;;29.32;49.53;101013.09;10318935;28;20061;-90
2022/08/14 09:05:50;;;;;;;8.52;5.05;;;;;;;29.83;48.92;101011.91;10318292;28;20554;-90
2022/08/14 09:10:56;;;;;;;8.15;5.00;;;;;;;30.01;47.87;101008.13;10322398;28;20109;-90
2022/08/14 09:16:00;;;;;;;8.32;5.55;;;;;;;30.19;48.00;100991.72;10323041;28;20097;-90
2022/08/14 09:21:20;;;;;;;11.23;5.60;;;;;;;30.05;47.09;100993.44;10309254;28;20066;-89
2022/08/14 09:26:25;;;;;;;10.32;5.63;;;;;;;29.90;47.38;100984.47;10322745;28;20053;-89
2022/08/14 09:31:36;;;;;;;9.60;4.85;;;;;;;30.12;47.64;100978.59;10311367;28;20109;-90
2022/08/14 09:37:30;;;;;;;9.63;5.30;;;;;;;30.43;46.85;100973.13;10327539;28;20454;-91
2022/08/14 09:43:34;;;;;;;11.07;5.10;;;;;;;30.53;46.56;100954.53;10310128;28;20054;-91
2022/08/14 09:48:47;;;;;;;7.72;5.15;;;;;;;31.32;46.47;100956.53;10309322;28;20046;-89
2022/08/14 09:54:00;;;;;;;10.65;5.25;;;;;;;30.97;45.84;100948.03;10325980;28;20045;-88
2022/08/14 09:59:24;;;;;;;8.45;5.03;;;;;;;31.00;45.86;100931.63;10324143;28;20046;-88
2022/08/14 10:04:27;;;;;;;7.90;4.75;;;;;;;31.39;45.24;100943.41;10323927;28;20385;-88
2022/08/14 10:09:48;;;;;;;10.65;4.88;;;;;;;30.76;45.10;100932.28;10323573;28;20182;-88
2022/08/14 10:15:14;;;;;;;7.20;4.60;;;;;;;30.66;44.66;100923.03;10323750;28;20050;-87
2022/08/14 10:20:19;;;;;;;8.68;4.90;;;;;;;31.04;45.26;100927.75;10324914;28;20129;-89
2022/08/14 10:26:39;;;;;;;8.00;4.57;;;;;;;31.87;44.53;100918.50;10318403;28;20679;-88
2022/08/14 10:45:30;;;;;;;9.02;4.80;;;;;;;31.25;44.14;100894.84;10216471;28;20058;-90
2022/08/14 10:50:40;;;;;;;9.75;5.47;;;;;;;31.32;44.40;100883.47;10241895;28;20035;-89
2022/08/14 10:56:25;;;;;;;;;;;;;;;;;;;;;
2022/08/14 11:02:41;;;;;;;8.40;5.03;;;;;;;31.41;43.48;100872.97;10175850;29;20475;-90
2022/08/14 11:08:38;;;;;;;7.57;4.78;;;;;;;31.04;43.90;100868.28;10229730;28;20107;-90
2022/08/14 11:14:27;;;;;;;7.57;4.95;;;;;;;31.37;44.30;100864.22;10200027;28;20051;-90
2022/08/14 11:20:01;;;;;;;8.70;4.63;;;;;;;31.52;43.58;100863.16;10304819;23;20214;-92
2022/08/14 11:25:44;;;;;;;8.95;4.90;;;;;;;30.76;43.86;100861.13;10134242;28;20046;-90
2022/08/14 11:31:02;;;;;;;10.57;4.70;;;;;;;30.67;44.66;100859.91;10247813;28;20466;-91
2022/08/14 11:36:09;;;;;;;11.68;5.20;;;;;;;31.01;43.49;100861.22;10270424;28;20051;-90
2022/08/14 11:41:40;;;;;;;10.73;4.85;;;;;;;30.62;44.12;100851.25;10248885;28;20082;-90
2022/08/14 11:47:02;;;;;;;9.85;5.25;;;;;;;30.92;43.67;100836.63;10251177;28;20047;-92
2022/08/14 11:52:07;;;;;;;8.02;4.50;;;;;;;30.93;43.89;100838.38;10252208;28;20055;-91
2022/08/14 11:57:13;;;;;;;9.63;5.10;;;;;;;31.33;43.33;100819.41;10242460;28;20131;-91
2022/08/14 12:02:19;;;;;;;7.95;4.40;;;;;;;32.02;43.51;100810.94;10245982;28;20048;-92
2022/08/14 12:07:48;;;;;;;6.80;4.40;;;;;;;32.25;42.42;100795.75;10243590;28;20043;-91
2022/08/14 12:12:53;;;;;;;8.55;4.72;;;;;;;32.14;41.42;100779.41;10253645;28;20094;-91
2022/08/14 12:17:55;;;;;;;9.60;5.07;;;;;;;31.99;41.37;100792.22;10283635;28;20082;-89
2022/08/14 12:22:57;;;;;;;7.90;4.65;;;;;;;32.40;41.56;100783.75;10244391;28;20430;-91
2022/08/14 12:28:09;;;;;;;10.20;4.93;;;;;;;32.18;40.90;100776.38;10244190;28;20091;-90
2022/08/14 12:33:33;;;;;;;8.32;4.70;;;;;;;32.00;41.51;100769.59;10250157;28;20039;-91
2022/08/14 12:38:42;;;;;;;7.68;4.53;;;;;;;32.10;41.09;100762.50;10235044;28;20531;-91
2022/08/14 12:43:50;;;;;;;9.63;4.35;;;;;;;31.74;40.79;100753.41;10241275;28;20062;-92
2022/08/14 12:48:52;;;;;;;9.20;4.43;;;;;;;31.66;41.26;100758.50;10253847;28;20423;-91
2022/08/14 12:53:55;;;;;;;7.45;4.05;;;;;;;31.59;40.75;100749.97;10274145;28;20127;-91
2022/08/14 12:59:01;;;;;;;8.27;4.43;;;;;;;31.42;40.13;100743.03;10253947;28;20508;-92
2022/08/14 13:04:14;;;;;;;9.98;4.47;;;;;;;30.98;40.76;100728.09;10249924;28;20106;-89
2022/08/14 13:09:16;;;;;;;8.30;4.50;;;;;;;31.37;40.81;100723.56;10249722;28;20043;-92
2022/08/14 13:14:24;;;;;;;8.23;4.82;;;;;;;32.02;39.98;100722.47;10256803;28;20059;-91
2022/08/14 13:19:32;;;;;;;10.07;4.80;;;;;;;31.46;40.25;100717.47;10253858;28;20042;-91
2022/08/14 13:24:36;;;;;;;11.40;4.65;;;;;;;31.67;40.17;100698.00;10260200;28;20050;-92
2022/08/14 13:29:40;;;;;;;7.90;4.22;;;;;;;31.96;39.91;100676.88;10268915;28;20047;-93
2022/08/14 13:34:48;;;;;;;9.02;4.60;;;;;;;32.36;39.24;100678.47;10264453;28;20054;-91
2022/08/14 13:39:53;;;;;;;10.95;5.07;;;;;;;32.19;39.09;100667.06;10236583;28;20120;-92
2022/08/14 13:45:01;;;;;;;8.07;4.57;;;;;;;31.49;39.10;100649.63;10252261;28;20066;-92
2022/08/14 13:50:08;;;;;;;13.38;4.90;;;;;;;31.31;39.13;100649.13;10254647;28;20048;-93
2022/08/14 13:55:14;;;;;;;8.82;4.07;;;;;;;31.72;39.38;100633.56;10245468;28;20055;-92
2022/08/14 14:00:17;;;;;;;7.80;4.43;;;;;;;32.23;39.40;100636.06;10244955;28;20051;-92
2022/08/14 14:05:36;;;;;;;10.25;4.85;;;;;;;32.51;39.25;100643.91;10229108;28;20057;-88
2022/08/14 14:10:54;;;;;;;9.05;4.35;;;;;;;31.99;38.45;100641.47;10243974;28;20083;-91
2022/08/14 14:15:58;;;;;;;8.60;4.50;;;;;;;31.69;38.84;100633.78;10246755;28;20051;-92
2022/08/14 14:21:05;;;;;;;7.10;4.50;;;;;;;31.50;39.17;100628.88;10256789;28;20686;-92
2022/08/14 14:26:15;;;;;;;9.45;4.28;;;;;;;31.86;39.16;100613.59;10265968;28;20138;-90
2022/08/14 14:31:28;;;;;;;7.80;4.30;;;;;;;32.21;38.75;100616.34;10243861;28;20039;-91
2022/08/14 14:36:33;;;;;;;10.13;4.22;;;;;;;32.64;38.38;100622.97;10259216;28;20056;-89
2022/08/14 14:41:38;;;;;;;9.70;4.43;;;;;;;32.31;37.98;100619.22;10249017;28;20122;-90
2022/08/14 14:46:49;;;;;;;10.25;4.72;;;;;;;32.15;38.34;100597.84;10251642;28;20134;-90
2022/08/14 14:51:57;;;;;;;9.50;4.63;;;;;;;31.79;38.42;100615.03;10242870;28;20596;-88
2022/08/14 14:57:01;;;;;;;7.97;4.43;;;;;;;31.47;38.73;100604.75;10241325;28;20516;-89
2022/08/14 15:02:05;;;;;;;10.23;4.85;;;;;;;31.21;39.60;100604.78;10264343;28;20051;-90
2022/08/14 15:07:10;;;;;;;11.40;4.30;;;;;;;30.89;40.13;100599.00;10255056;28;20094;-90
2022/08/14 15:12:13;;;;;;;7.75;4.70;;;;;;;30.58;40.25;100582.22;10270361;28;20043;-88
2022/08/14 15:17:36;;;;;;;8.20;4.70;;;;;;;31.08;40.63;100577.78;10230590;28;20496;-89
2022/08/14 15:22:42;;;;;;;7.72;4.63;;;;;;;31.67;40.47;100565.41;10251481;28;20083;-91
2022/08/14 15:27:52;;;;;;;8.10;4.20;;;;;;;31.99;39.19;100568.38;10258303;28;20039;-90
2022/08/14 15:32:55;;;;;;;9.23;4.90;;;;;;;31.75;38.99;100556.69;10257471;28;20071;-89
2022/08/14 15:37:56;;;;;;;9.05;4.93;;;;;;;31.53;39.58;100551.03;10243417;28;20050;-87
2022/08/14 15:42:59;;;;;;;7.18;4.15;;;;;;;31.65;39.36;100548.41;10269787;28;20043;-87
2022/08/14 15:48:01;;;;;;;10.05;5.10;;;;;;;31.55;39.32;100550.94;10247209;28;20045;-87
2022/08/14 15:53:07;;;;;;;11.07;4.20;;;;;;;31.76;39.14;100543.03;10244073;28;20131;-87
2022/08/14 15:58:12;;;;;;;8.38;4.55;;;;;;;31.84;39.54;100535.22;10247467;28;20048;-87
2022/08/14 16:03:16;;;;;;;7.32;4.32;;;;;;;31.73;38.95;100530.59;10238513;28;20047;-89
2022/08/14 16:08:36;;;;;;;7.93;4.57;;;;;;;31.73;39.05;100524.34;10242789;28;20046;-89
2022/08/14 16:13:43;;;;;;;10.93;4.45;;;;;;;31.77;39.03;100523.13;10244066;28;20102;-90
2022/08/14 16:18:56;;;;;;;10.63;4.80;;;;;;;31.91;39.08;100511.22;10254210;28;20043;-90
2022/08/14 16:24:07;;;;;;;9.02;4.70;;;;;;;32.19;38.85;100512.69;10239882;28;20109;-89
2022/08/14 16:29:33;;;;;;;9.18;4.38;;;;;;;32.21;38.78;100502.56;10241476;28;20071;-90
2022/08/14 16:34:42;;;;;;;9.50;4.55;;;;;;;32.31;38.58;100501.84;10248869;28;20040;-90
2022/08/14 16:39:51;;;;;;;7.57;4.07;;;;;;;32.03;37.93;100504.84;10244839;28;20062;-91
2022/08/14 16:44:57;;;;;;;9.25;4.45;;;;;;;32.07;38.31;100492.81;10250310;28;20051;-91
2022/08/14 16:49:59;;;;;;;9.65;4.25;;;;;;;31.96;38.27;100491.91;10264686;28;20036;-89
2022/08/14 16:55:08;;;;;;;7.97;4.47;;;;;;;31.94;38.46;100486.63;10261404;28;20056;-90
2022/08/14 17:00:31;;;;;;;8.60;4.32;;;;;;;31.85;38.41;100490.91;10255252;28;20068;-89
2022/08/14 17:05:46;;;;;;;8.15;3.65;;;;;;;31.73;38.63;100478.31;10258621;28;20121;-89
2022/08/14 17:10:51;;;;;;;7.65;4.25;;;;;;;31.78;38.53;100478.81;10246425;28;20460;-90
2022/08/14 17:16:16;;;;;;;7.70;4.15;;;;;;;31.89;38.46;100476.16;10258887;28;20078;-88
2022/08/14 17:21:34;;;;;;;8.48;4.10;;;;;;;31.89;38.59;100475.31;10242651;28;20054;-91
2022/08/14 17:26:44;;;;;;;6.80;4.15;;;;;;;31.76;38.04;100469.97;10258404;28;20545;-91
2022/08/14 17:32:11;;;;;;;7.68;4.28;;;;;;;31.52;38.67;100470.81;10247497;28;20043;-90
2022/08/14 17:37:41;;;;;;;8.30;4.55;;;;;;;31.38;39.04;100460.22;10269345;28;20380;-89
2022/08/14 17:42:48;;;;;;;7.20;4.63;;;;;;;31.11;39.10;100455.03;10244476;28;20055;-90
2022/08/14 17:47:57;;;;;;;9.05;5.07;;;;;;;30.83;39.20;100457.91;10253335;28;20047;-90
2022/08/14 17:53:01;;;;;;;10.82;4.80;;;;;;;30.54;39.75;100451.94;10230971;28;20044;-89
2022/08/14 17:58:17;;;;;;;9.07;4.95;;;;;;;30.30;40.27;100457.22;10247573;28;20036;-89
2022/08/14 18:03:25;;;;;;;9.82;4.60;;;;;;;30.15;40.54;100460.03;10274975;28;20072;-89
2022/08/14 18:08:47;;;;;;;10.55;5.18;;;;;;;29.97;40.69;100458.63;10261288;28;20117;-89
2022/08/14 18:13:58;;;;;;;8.43;5.00;;;;;;;29.83;41.12;100456.00;10271746;28;20066;-90
2022/08/14 18:19:01;;;;;;;8.23;4.70;;;;;;;29.70;41.68;100458.69;10247935;28;20055;-90
2022/08/14 18:24:04;;;;;;;10.48;5.40;;;;;;;29.56;42.27;100463.19;10248326;28;20404;-89
2022/08/14 18:29:26;;;;;;;12.00;5.60;;;;;;;29.42;42.38;100463.22;10244544;28;20130;-88
2022/08/14 18:34:39;;;;;;;9.77;4.90;;;;;;;29.25;43.08;100469.75;10265577;28;20610;-90
2022/08/14 18:39:51;;;;;;;8.30;4.75;;;;;;;29.06;43.21;100461.97;10261640;28;20043;-90
2022/08/14 18:45:06;;;;;;;11.65;5.32;;;;;;;28.85;43.50;100458.88;10258446;28;20035;-89
2022/08/14 18:50:22;;;;;;;12.05;5.10;;;;;;;28.58;43.89;100459.63;10282579;28;20046;-89
2022/08/14 18:55:36;;;;;;;10.40;4.93;;;;;;;28.37;44.53;100465.44;10235646;28;20043;-89
2022/08/14 19:00:55;;;;;;;11.00;5.38;;;;;;;28.14;45.05;100460.63;10253208;28;20573;-88
2022/08/14 19:06:04;;;;;;;10.40;5.10;;;;;;;27.98;45.39;100460.69;10253821;28;20051;-88
2022/08/14 19:11:38;;;;;;;8.77;4.75;;;;;;;27.77;45.87;100457.44;10253852;28;20720;-88
2022/08/14 19:16:41;;;;;;;9.00;4.95;;;;;;;27.64;46.12;100462.69;10267632;28;20043;-88
2022/08/14 19:21:56;;;;;;;9.32;4.90;;;;;;;27.41;46.57;100464.03;10285346;28;20061;-89
2022/08/14 19:27:17;;;;;;;8.68;4.90;;;;;;;27.28;47.18;100456.66;10286676;28;20086;-88
2022/08/14 19:32:34;;;;;;;9.25;4.82;;;;;;;27.19;46.99;100450.94;10301155;28;20035;-87
2022/08/14 19:37:47;;;;;;;9.85;5.75;;;;;;;27.13;47.30;100455.72;10295555;28;20133;-86
2022/08/14 19:42:53;;;;;;;9.50;5.50;;;;;;;27.06;48.07;100456.19;10277264;28;20061;-88
2022/08/14 19:47:59;;;;;;;9.25;5.18;;;;;;;27.00;48.20;100452.00;10317583;28;20073;-86
2022/08/14 19:53:05;;;;;;;12.15;4.95;;;;;;;26.91;48.18;100452.53;10292565;28;20068;-86
2022/08/14 19:58:12;;;;;;;12.13;5.70;;;;;;;26.81;48.56;100450.38;10287491;28;20031;-85
2022/08/14 20:03:13;;;;;;;9.90;5.75;;;;;;;26.74;48.66;100445.44;10295827;28;20034;-85
2022/08/14 20:08:21;;;;;;;10.50;5.95;;;;;;;26.67;49.32;100446.72;10291905;28;20058;-85
2022/08/14 20:13:43;;;;;;;10.90;6.00;;;;;;;26.58;49.35;100440.00;10279518;28;20101;-86
2022/08/14 20:18:45;;;;;;;11.35;5.80;;;;;;;26.51;49.37;100442.16;10247987;28;20039;-85
2022/08/14 20:24:26;;;;;;;18.50;6.32;;;;;;;26.46;50.10;100439.72;10236056;28;20756;-86
2022/08/14 20:29:31;;;;;;;11.15;6.18;;;;;;;26.44;50.06;100438.09;10228293;29;20043;-86
2022/08/14 20:34:41;;;;;;;11.15;5.53;;;;;;;26.43;50.54;100439.03;10234376;28;20599;-85
2022/08/14 20:39:52;;;;;;;9.43;6.22;;;;;;;26.41;50.62;100447.19;10225924;28;20114;-85
2022/08/14 20:45:22;;;;;;;10.80;5.78;;;;;;;26.49;50.07;100436.00;10236213;28;20035;-85
2022/08/14 20:50:28;;;;;;;10.60;6.50;;;;;;;26.56;50.03;100448.16;10238764;28;20047;-86
2022/08/14 20:55:36;;;;;;;10.38;5.97;;;;;;;26.59;50.07;100447.97;10237641;28;20453;-85
2022/08/14 21:00:43;;;;;;;9.93;6.10;;;;;;;26.60;50.10;100449.72;10232824;28;20043;-85
2022/08/14 21:06:07;;;;;;;11.27;5.80;;;;;;;26.52;50.54;100446.59;10216101;28;20124;-85
2022/08/14 21:11:22;;;;;;;11.45;6.35;;;;;;;26.44;50.78;100435.41;10254772;28;20039;-85
2022/08/14 21:16:24;;;;;;;10.45;6.32;;;;;;;26.40;50.96;100437.38;10239183;28;20051;-86
2022/08/14 21:21:40;;;;;;;14.45;6.63;;;;;;;26.35;51.09;100438.59;10233004;28;20049;-86
2022/08/14 21:26:44;;;;;;;9.80;5.90;;;;;;;26.31;51.44;100439.72;10241490;28;20448;-85
2022/08/14 21:32:05;;;;;;;11.93;6.88;;;;;;;26.20;52.07;100435.78;10234614;28;20045;-85
2022/08/14 21:37:22;;;;;;;11.63;6.75;;;;;;;26.10;52.29;100434.53;10237266;28;20150;-85
2022/08/14 21:42:23;;;;;;;9.73;6.28;;;;;;;26.00;52.63;100427.94;10242159;28;20551;-85
2022/08/14 21:47:28;;;;;;;11.77;6.15;;;;;;;25.87;53.07;100428.56;10244951;28;20070;-86
2022/08/14 21:52:31;;;;;;;9.27;6.28;;;;;;;25.70;53.38;100425.88;10245100;28;20043;-85
2022/08/14 21:57:53;;;;;;;15.38;6.22;;;;;;;25.60;54.17;100414.78;10241128;28;20497;-85
2022/08/14 22:03:21;;;;;;;12.73;6.80;;;;;;;25.46;54.53;100423.53;10243921;28;20048;-85
2022/08/14 22:08:25;;;;;;;11.73;6.53;;;;;;;25.36;55.21;100416.91;10263807;28;20058;-88
2022/08/14 22:13:28;;;;;;;10.55;6.60;;;;;;;25.26;55.89;100407.56;10253783;28;20066;-88
2022/08/14 22:18:33;;;;;;;11.98;7.13;;;;;;;25.21;56.33;100405.09;10240278;28;20654;-85
2022/08/14 22:23:37;;;;;;;11.48;6.60;;;;;;;25.15;56.48;100395.56;10241898;29;20043;-85
2022/08/14 22:28:39;;;;;;;10.07;7.13;;;;;;;25.05;57.24;100399.63;10231498;28;20039;-85
2022/08/14 22:33:47;;;;;;;12.52;6.88;;;;;;;24.95;57.41;100396.56;10233792;28;20054;-86
2022/08/14 22:38:50;;;;;;;14.70;7.18;;;;;;;24.91;57.77;100391.44;10242107;28;20154;-85
2022/08/14 22:43:59;;;;;;;10.70;6.93;;;;;;;24.84;58.49;100382.81;10237580;28;20031;-85
2022/08/14 22:49:04;;;;;;;18.30;6.82;;;;;;;24.76;58.17;100380.50;10239613;28;20458;-85
2022/08/14 22:54:27;;;;;;;12.38;6.82;;;;;;;24.70;58.48;100378.13;10238087;28;20069;-85
2022/08/14 22:59:49;;;;;;;11.10;6.28;;;;;;;24.67;58.73;100375.63;10251713;28;20050;-85
2022/08/14 23:04:53;;;;;;;14.07;6.97;;;;;;;24.50;59.38;100374.56;10238252;28;20134;-85
2022/08/14 23:09:58;;;;;;;10.88;6.68;;;;;;;24.46;59.73;100364.94;10241849;28;20649;-85
2022/08/14 23:15:22;;;;;;;11.65;6.88;;;;;;;24.36;60.54;100360.97;10231757;28;20047;-85
2022/08/14 23:20:24;;;;;;;10.38;6.35;;;;;;;24.32;60.75;100360.25;10241958;28;20063;-85
2022/08/14 23:25:30;;;;;;;13.82;7.35;;;;;;;24.21;61.33;100362.56;10235911;28;20043;-85
2022/08/14 23:30:52;;;;;;;21.42;6.55;;;;;;;24.11;61.95;100346.09;10261356;28;20075;-85
2022/08/14 23:35:56;;;;;;;11.57;6.45;;;;;;;24.10;62.32;100348.81;10239905;28;20126;-86
2022/08/14 23:41:02;;;;;;;11.48;6.72;;;;;;;24.11;62.54;100350.53;10261915;28;20069;-85
2022/08/14 23:46:05;;;;;;;11.85;6.35;;;;;;;24.09;62.16;100347.09;10235545;28;20109;-85
2022/08/14 23:51:15;;;;;;;12.90;6.78;;;;;;;24.07;62.27;100330.25;10237036;28;20571;-85
2022/08/14 23:56:23;;;;;;;10.95;5.80;;;;;;;24.08;62.41;100332.84;10229730;28;20509;-85
